Latest Weather Observations for Mount Lofty

IDS60901

Issued at 2:31 pm CDT Friday 24 February 2017 (issued every 10 minutes, with the page automatically refreshed every 10 minutes)

About weather observations | Map of Adelaide area stations | Latest observations for Adelaide area | Other Formats
Station Details ID: 023842 Name: MOUNT LOFTY Lat: -34.98 Lon: 138.71 Height: 685.0 m
Data from the previous 72 hours. | See also: Recent months at Mount Lofty
Date/Time
CDT
Temp
°C
App
Temp
°C
Dew
Point
°C
Rel
Hum
%
Delta-T
°C
Wind Press
QNH
hPa
Press
MSL
hPa
Rain since
9am
mm
Dir  Spd
km/h
Gust
km/h
Spd
kts
Gust
kts
24/02:00pm 17.4 15.6 9.6 60 4.2 SE 9 20 5 11 - - 0.0
24/01:30pm 16.8 14.9 9.2 61 4.1 SSE 9 17 5 9 - - 0.0
24/01:00pm 16.8 15.8 10.2 65 3.6 SSE 6 13 3 7 - - 0.0
24/12:30pm 16.1 14.8 9.8 66 3.4 SE 7 15 4 8 - - 0.0
24/12:00pm 15.8 14.4 9.7 67 3.3 SSE 7 19 4 10 - - 0.0
24/11:30am 14.6 12.9 8.5 67 3.2 SE 7 15 4 8 - - 0.0
24/11:00am 14.9 13.1 9.3 69 3.0 SE 9 20 5 11 - - 0.0
24/10:30am 13.8 11.8 8.8 72 2.6 SE 9 20 5 11 - - 0.0
24/10:00am 12.6 9.4 8.3 75 2.2 ESE 15 30 8 16 - - 0.0
24/09:30am 11.2 8.7 8.1 81 1.6 SE 11 20 6 11 - - 0.0
24/09:00am 11.1 8.7 8.5 84 1.3 ESE 11 24 6 13 - - 0.0
24/08:30am 10.6 7.7 8.2 85 1.2 ESE 13 26 7 14 - - 0.0
24/08:00am 9.6 7.1 8.0 90 0.8 ESE 11 22 6 12 - - 0.0
24/07:30am 9.0 6.4 7.8 92 0.6 ESE 11 22 6 12 - - 0.0
24/07:00am 8.6 5.9 7.5 93 0.5 ESE 11 19 6 10 - - 0.0
24/06:30am 8.7 5.7 7.6 93 0.5 ESE 13 24 7 13 - - 0.0
24/06:00am 8.7 6.1 7.6 93 0.5 ESE 11 19 6 10 - - 0.0
24/05:30am 8.8 6.2 7.7 93 0.5 ESE 11 19 6 10 - - 0.0
24/05:00am 8.8 5.8 7.9 94 0.4 ESE 13 22 7 12 - - 0.0
24/04:30am 8.8 5.8 7.9 94 0.4 ESE 13 20 7 11 - - 0.0
24/04:00am 9.1 6.2 8.0 93 0.5 ESE 13 19 7 10 - - 0.0
24/03:30am 9.3 6.8 8.2 93 0.6 ESE 11 17 6 9 - - 0.0
24/03:00am 9.5 7.0 8.4 93 0.6 ESE 11 22 6 12 - - 0.0
24/02:30am 9.8 7.8 8.6 92 0.6 ESE 9 15 5 8 - - 0.0
24/02:00am 9.9 7.5 8.8 93 0.6 ESE 11 20 6 11 - - 0.0
24/01:30am 10.1 7.8 9.0 93 0.6 ESE 11 20 6 11 - - 0.0
24/01:00am 10.4 8.6 9.3 93 0.6 ESE 9 19 5 10 - - 0.0
24/12:30am 10.9 8.8 9.8 93 0.6 ESE 11 19 6 10 - - 0.0
24/12:00am 11.3 9.4 10.4 94 0.5 ESE 11 20 6 11 - - 0.0
 
Date/Time
CDT
Temp
°C
App
Temp
°C
Dew
Point
°C
Rel
Hum
%
Delta-T
°C
Wind Press
QNH
hPa
Press
MSL
hPa
Rain since
9am
mm
Dir  Spd
km/h
Gust
km/h
Spd
kts
Gust
kts
23/11:30pm 11.5 9.6 10.4 93 0.6 ESE 11 20 6 11 - - 0.0
23/11:00pm 11.7 10.2 10.4 92 0.7 ESE 9 17 5 9 - - 0.0
23/10:30pm 11.7 10.2 10.4 92 0.7 ESE 9 15 5 8 - - 0.0
23/10:00pm 11.7 9.8 10.4 92 0.7 ESE 11 15 6 8 - - 0.0
23/09:30pm 12.0 10.5 10.4 90 0.9 ESE 9 17 5 9 - - 0.0
23/09:00pm 12.1 10.9 10.2 88 1.0 ESE 7 15 4 8 - - 0.0
23/08:30pm 12.8 12.1 10.2 84 1.4 SE 4 9 2 5 - - 0.0
23/08:00pm 14.0 13.3 10.2 78 2.0 SE 4 9 2 5 - - 0.0
23/07:30pm 15.9 15.5 11.1 73 2.7 SSE 4 9 2 5 - - 0.0
23/07:00pm 16.5 15.8 11.4 72 2.9 SSW 6 11 3 6 - - 0.0
23/06:30pm 17.3 16.9 11.1 67 3.5 SE 4 9 2 5 - - 0.0
23/06:00pm 17.1 16.5 11.6 70 3.1 S 6 11 3 6 - - 0.0
23/05:30pm 17.4 17.0 11.2 67 3.5 SW 4 9 2 5 - - 0.0
23/05:00pm 18.0 17.3 12.0 68 3.4 WSW 7 13 4 7 - - 0.0
23/04:30pm 18.8 18.2 12.3 66 3.7 W 7 17 4 9 - - 0.0
23/04:00pm 18.9 18.5 12.9 68 3.5 W 7 11 4 6 - - 0.0
23/03:30pm 18.1 17.4 12.1 68 3.4 W 7 15 4 8 - - 0.0
23/03:00pm 17.6 17.1 11.9 69 3.2 WSW 6 11 3 6 - - 0.0
23/02:30pm 18.0 17.0 12.2 69 3.3 W 9 13 5 7 - - 0.0
23/02:00pm 16.8 16.1 11.3 70 3.1 W 6 13 3 7 - - 0.0
23/01:30pm 17.5 16.8 11.5 68 3.4 WNW 6 9 3 5 - - 0.0
23/01:00pm 16.2 15.6 10.5 69 3.1 W 4 9 2 5 - - 0.0
23/12:30pm 16.5 16.1 11.2 71 3.0 WSW 4 7 2 4 - - 0.0
23/12:00pm 16.0 15.3 9.9 67 3.3 WSW 4 9 2 5 - - 0.0
23/11:30am 15.7 14.8 9.4 66 3.4 W 4 7 2 4 - - 0.0
23/11:00am 15.0 14.6 11.2 78 2.1 WSW 4 7 2 4 - - 0.0
23/10:30am 13.4 12.9 10.9 85 1.4 SSW 4 7 2 4 - - 0.0
23/10:00am 13.7 13.3 11.0 84 1.5 WSW 4 11 2 6 - - 0.0
23/09:30am 13.5 13.0 10.7 83 1.5 WSW 4 11 2 6 - - 0.0
23/09:00am 13.1 11.7 10.8 86 1.2 WSW 9 17 5 9 - - 0.0
23/08:30am 12.3 11.4 11.2 93 0.6 WSW 7 13 4 7 - - 0.0
23/08:00am 12.1 10.8 11.2 94 0.5 WSW 9 17 5 9 - - 0.0
23/07:30am 12.2 11.3 11.4 95 0.4 W 7 13 4 7 - - 0.0
23/07:00am 12.2 11.0 11.6 96 0.3 WSW 9 22 5 12 - - 0.0
23/06:30am 12.4 11.3 11.8 96 0.3 W 9 19 5 10 - - 0.0
23/06:00am 12.5 11.7 11.7 95 0.4 W 7 15 4 8 - - 0.0
23/05:30am 12.4 10.8 11.5 94 0.5 W 11 19 6 10 - - 0.0
23/05:00am 12.4 10.8 11.6 95 0.4 W 11 20 6 11 - - 0.0
23/04:30am 12.3 10.2 11.2 93 0.6 W 13 20 7 11 - - 0.0
23/04:00am 12.5 10.8 11.1 91 0.8 W 11 17 6 9 - - 0.0
23/03:30am 12.7 11.4 11.4 92 0.7 W 9 17 5 9 - - 0.0
23/03:00am 12.8 11.5 11.4 91 0.8 W 9 17 5 9 - - 0.0
23/02:30am 13.0 12.1 11.4 90 0.9 W 7 17 4 9 - - 0.0
23/02:00am 13.1 12.1 11.0 87 1.1 W 7 19 4 10 - - 0.0
23/01:30am 13.1 11.4 11.2 88 1.0 W 11 20 6 11 - - 0.0
23/01:00am 13.4 12.0 12.1 92 0.7 W 11 28 6 15 - - 0.0
23/12:30am 13.5 12.1 12.2 92 0.7 W 11 26 6 14 - - 0.0
23/12:00am 13.5 10.8 11.7 89 1.0 W 17 35 9 19 - - 0.0
 
Date/Time
CDT
Temp
°C
App
Temp
°C
Dew
Point
°C
Rel
Hum
%
Delta-T
°C
Wind Press
QNH
hPa
Press
MSL
hPa
Rain since
9am
mm
Dir  Spd
km/h
Gust
km/h
Spd
kts
Gust
kts
22/11:30pm 13.6 11.5 11.3 86 1.3 W 13 24 7 13 - - 0.0
22/11:00pm 13.8 11.7 11.1 84 1.5 W 13 28 7 15 - - 0.0
22/10:30pm 14.3 12.7 11.5 83 1.6 W 11 20 6 11 - - 0.0
22/10:00pm 14.3 12.4 10.5 78 2.1 W 11 20 6 11 - - 0.0
22/09:30pm 14.4 12.7 11.2 81 1.8 W 11 20 6 11 - - 0.0
22/09:00pm 14.6 12.0 10.8 78 2.1 W 15 28 8 15 - - 0.0
22/08:30pm 14.9 12.2 10.3 74 2.5 W 15 28 8 15 - - 0.0
22/08:00pm 15.3 12.9 9.9 70 2.9 W 13 24 7 13 - - 0.0
22/07:30pm 16.2 13.2 9.4 64 3.7 W 15 37 8 20 - - 0.0
22/07:00pm 16.8 12.7 8.8 59 4.3 WNW 20 43 11 23 - - 0.0
22/06:30pm 17.8 14.4 9.2 57 4.6 W 17 32 9 17 - - 0.0
22/06:00pm 17.9 14.5 9.0 56 4.8 WNW 17 32 9 17 - - 0.0
22/05:30pm 18.1 14.2 9.5 57 4.7 WNW 20 35 11 19 - - 0.0
22/05:00pm 18.4 14.4 8.9 54 5.1 WNW 20 41 11 22 - - 0.0
22/04:30pm 18.3 13.6 7.7 50 5.6 WNW 22 43 12 23 - - 0.0
22/04:00pm 17.4 13.0 7.5 52 5.2 WNW 20 37 11 20 - - 0.0
22/03:30pm 18.4 13.6 8.7 53 5.2 WNW 24 39 13 21 - - 0.0
22/03:00pm 19.3 15.0 9.2 52 5.5 WNW 22 35 12 19 - - 0.0
22/02:30pm 19.4 15.7 10.1 55 5.2 WNW 20 41 11 22 - - 0.0
22/02:00pm 20.1 16.4 10.2 53 5.5 WNW 20 44 11 24 - - 0.0
22/01:35pm 20.4 14.7 8.4 46 6.5 WNW 28 50 15 27 - - 0.0
22/01:30pm 20.9 15.5 8.2 44 6.9 WNW 26 50 14 27 - - 0.0
22/01:00pm 20.7 17.1 9.9 50 6.0 WNW 19 37 10 20 - - 0.0
22/12:30pm 19.2 15.6 9.9 55 5.1 WNW 19 35 10 19 - - 0.0
22/12:00pm 19.3 17.8 13.0 67 3.7 WNW 13 24 7 13 - - 0.0
22/11:30am 17.8 16.3 14.1 79 2.2 W 15 30 8 16 - - 0.0
22/11:00am 19.6 15.5 12.8 65 4.0 WNW 26 50 14 27 - - 0.0
22/10:30am 21.8 13.8 3.9 31 9.0 WNW 35 63 19 34 - - 0.0
22/10:03am 23.4 16.5 2.8 26 10.2 NW 28 61 15 33 - - 0.0
22/10:00am 23.4 16.9 2.8 26 10.2 NW 26 61 14 33 - - 0.0
22/09:30am 22.6 16.9 2.7 27 9.8 NNW 22 39 12 21 - - 0.0
22/09:00am 22.2 15.2 1.8 26 9.8 NNW 28 44 15 24 - - 0.0
22/08:30am 21.7 14.6 1.4 26 9.7 NNW 28 52 15 28 - - 0.0
22/08:10am 22.3 15.2 1.3 25 10.1 NNW 28 59 15 32 - - 0.0
22/08:00am 22.3 16.1 1.9 26 9.9 NNW 24 43 13 23 - - 0.0
22/07:30am 21.9 15.2 1.6 26 9.7 N 26 41 14 22 - - 0.0
22/07:25am 22.0 14.9 1.6 26 9.8 NNW 28 48 15 26 - - 0.0
22/07:00am 21.6 15.7 1.8 27 9.5 NNW 22 44 12 24 - - 0.0
22/06:30am 21.8 15.9 1.5 26 9.7 NNW 22 37 12 20 - - 0.0
22/06:00am 22.0 16.4 1.1 25 9.9 NNW 20 43 11 23 - - 0.0
22/05:30am 21.0 15.6 1.3 27 9.3 N 19 35 10 19 - - 0.0
22/05:00am 20.6 15.5 1.0 27 9.2 N 17 32 9 17 - - 0.0
22/04:30am 20.7 15.7 1.1 27 9.2 N 17 32 9 17 - - 0.0
22/04:00am 20.6 14.9 0.4 26 9.4 N 20 39 11 21 - - 0.0
22/03:30am 20.6 14.8 -0.1 25 9.5 N 20 39 11 21 - - 0.0
22/03:00am 20.7 15.0 -0.6 24 9.7 N 19 41 10 22 - - 0.0
22/02:30am 20.8 14.9 -0.5 24 9.7 NNE 20 39 11 21 - - 0.0
22/02:00am 20.9 15.4 0.7 26 9.5 NNE 19 35 10 19 - - 0.0
22/01:30am 20.8 15.5 1.6 28 9.1 NNE 19 37 10 20 - - 0.0
22/01:00am 20.9 15.7 2.2 29 9.0 NNE 19 32 10 17 - - 0.0
22/12:30am 20.6 16.1 2.4 30 8.8 NNE 15 33 8 18 - - 0.0
22/12:00am 20.7 16.6 2.5 30 8.8 NE 13 33 7 18 - - 0.0
 
Date/Time
CDT
Temp
°C
App
Temp
°C
Dew
Point
°C
Rel
Hum
%
Delta-T
°C
Wind Press
QNH
hPa
Press
MSL
hPa
Rain since
9am
mm
Dir  Spd
km/h
Gust
km/h
Spd
kts
Gust
kts
21/11:30pm 20.7 17.1 3.0 31 8.7 NE 11 26 6 14 - - 0.0
21/11:00pm 20.6 16.6 2.9 31 8.6 NE 13 24 7 13 - - 0.0
21/10:30pm 20.5 16.6 3.3 32 8.4 NE 13 30 7 16 - - 0.0
21/10:00pm 20.0 16.5 3.3 33 8.2 ENE 11 22 6 12 - - 0.0
21/09:30pm 20.2 17.6 4.3 35 7.9 E 7 17 4 9 - - 0.0
21/09:00pm 20.3 18.0 4.8 36 7.8 ENE 6 11 3 6 - - 0.0
21/08:30pm 20.9 18.5 5.3 36 8.0 NNE 7 13 4 7 - - 0.0
21/08:00pm 21.0 19.5 6.9 40 7.4 E 4 9 2 5 - - 0.0
21/07:30pm 22.1 21.0 7.1 38 8.0 ENE 2 7 1 4 - - 0.0
21/07:00pm 24.4 23.0 7.1 33 9.3 NW 4 7 2 4 - - 0.0
21/06:30pm 24.6 23.4 8.1 35 9.1 WNW 4 9 2 5 - - 0.0
21/06:00pm 24.3 22.5 7.0 33 9.3 W 6 11 3 6 - - 0.0
21/05:30pm 24.1 22.0 6.8 33 9.3 WNW 7 15 4 8 - - 0.0
21/05:00pm 24.4 22.4 7.1 33 9.3 N 7 15 4 8 - - 0.0
21/04:30pm 24.3 22.6 7.4 34 9.2 NNE 6 13 3 7 - - 0.0
21/04:00pm 23.7 21.4 7.3 35 8.8 NNE 9 19 5 10 - - 0.0
21/03:30pm 23.6 21.2 6.8 34 9.0 NNW 9 20 5 11 - - 0.0
21/03:00pm 22.8 20.3 6.6 35 8.6 N 9 17 5 9 - - 0.0

Latest Capital City Observations: Canberra | Sydney | Melbourne | Brisbane | Adelaide | Perth | Hobart | Darwin

Other Formats:

Comma delimited format used in spreadsheet applications
http://www.bom.gov.au/fwo/IDS60901/IDS60901.95678.axf

JavaScript Object Notation format (JSON) in row-major order
http://www.bom.gov.au/fwo/IDS60901/IDS60901.95678.json